createdAt,value
2018-06-14T00:00:09.034Z,989.31
2018-06-14T00:01:16.171Z,989.32
2018-06-14T00:02:23.262Z,989.35
2018-06-14T00:03:30.151Z,989.34
2018-06-14T00:04:37.159Z,989.38
2018-06-14T00:05:44.228Z,989.42
2018-06-14T00:06:51.223Z,989.42
2018-06-14T00:07:58.220Z,989.35
2018-06-14T00:09:05.093Z,989.36
2018-06-14T00:10:12.131Z,989.37
2018-06-14T00:11:19.256Z,989.30
2018-06-14T00:12:26.312Z,989.34
2018-06-14T00:13:33.291Z,989.32
2018-06-14T00:14:40.326Z,989.27
2018-06-14T00:15:47.287Z,989.29
2018-06-14T00:16:54.232Z,989.25
2018-06-14T00:18:01.304Z,989.23
2018-06-14T00:19:08.251Z,989.25
2018-06-14T00:20:15.254Z,989.29
2018-06-14T00:21:22.278Z,989.22
2018-06-14T00:22:29.210Z,989.30
2018-06-14T00:23:36.193Z,989.25
2018-06-14T00:24:43.203Z,989.23
2018-06-14T00:25:50.058Z,989.17
2018-06-14T00:26:56.871Z,989.14
2018-06-14T00:28:03.858Z,989.15
2018-06-14T00:29:10.930Z,989.16
2018-06-14T00:30:17.907Z,989.15
2018-06-14T00:31:24.959Z,989.14
2018-06-14T00:32:31.941Z,989.16
2018-06-14T00:33:38.985Z,989.17
2018-06-14T00:34:46.043Z,989.10
2018-06-14T00:35:52.925Z,989.12
2018-06-14T00:36:59.893Z,989.13
2018-06-14T00:38:06.966Z,989.15
2018-06-14T00:39:13.943Z,989.12
2018-06-14T00:40:20.919Z,989.21
2018-06-14T00:41:27.783Z,989.20
2018-06-14T00:42:34.805Z,989.18
2018-06-14T00:43:41.752Z,989.19
2018-06-14T00:44:48.719Z,989.22
2018-06-14T00:45:55.655Z,989.26
2018-06-14T00:47:02.872Z,989.20
2018-06-14T00:48:09.819Z,989.23
2018-06-14T00:49:16.880Z,989.21
2018-06-14T00:50:23.923Z,989.26
2018-06-14T00:51:30.927Z,989.19
2018-06-14T00:52:37.786Z,989.23
2018-06-14T00:53:44.788Z,989.23
2018-06-14T00:54:51.832Z,989.23
2018-06-14T00:55:58.867Z,989.20
2018-06-14T00:57:06.011Z,989.19
2018-06-14T00:58:12.853Z,989.14
2018-06-14T00:59:19.863Z,989.13
2018-06-14T01:00:26.949Z,989.16
2018-06-14T01:01:33.972Z,989.14
2018-06-14T01:02:40.887Z,989.25
2018-06-14T01:03:47.834Z,989.11
2018-06-14T01:04:54.793Z,989.20
2018-06-14T01:06:01.782Z,989.15
2018-06-14T01:07:08.810Z,989.17
2018-06-14T01:08:15.588Z,989.18
2018-06-14T01:09:22.492Z,989.14
2018-06-14T01:10:29.514Z,989.20
2018-06-14T01:11:36.506Z,989.22
2018-06-14T01:12:43.180Z,989.23
2018-06-14T01:13:50.252Z,989.20
2018-06-14T01:14:57.107Z,989.16
2018-06-14T01:16:04.078Z,989.14
2018-06-14T01:17:11.350Z,989.20
2018-06-14T01:18:17.717Z,989.15
2018-06-14T01:19:24.489Z,989.18
2018-06-14T01:20:31.358Z,989.16
2018-06-14T01:21:38.543Z,989.06
2018-06-14T01:22:45.530Z,989.07
2018-06-14T01:23:52.462Z,989.08
2018-06-14T01:24:59.402Z,989.10
2018-06-14T01:26:06.400Z,989.08
2018-06-14T01:27:13.376Z,989.19
2018-06-14T01:28:20.369Z,989.25
2018-06-14T01:29:27.189Z,989.19
2018-06-14T01:30:34.166Z,989.19
2018-06-14T01:31:41.002Z,989.16
2018-06-14T01:32:47.871Z,989.26
2018-06-14T01:33:54.894Z,989.22
2018-06-14T01:35:01.894Z,989.21
2018-06-14T01:36:08.935Z,989.14
2018-06-14T01:37:16.312Z,989.14
2018-06-14T01:38:23.074Z,989.12
2018-06-14T01:39:30.018Z,989.14
2018-06-14T01:40:37.003Z,989.14
2018-06-14T01:41:43.983Z,989.10
2018-06-14T01:42:51.053Z,989.17
2018-06-14T01:43:58.004Z,989.10
2018-06-14T01:45:04.791Z,989.13
2018-06-14T01:46:11.647Z,989.07
2018-06-14T01:47:18.641Z,989.11
2018-06-14T01:48:25.693Z,989.02
2018-06-14T01:49:32.604Z,989.07
2018-06-14T01:50:39.619Z,989.03
2018-06-14T01:51:46.525Z,989.04
2018-06-14T01:52:53.406Z,989.06
2018-06-14T01:54:00.354Z,989.00
2018-06-14T01:55:07.403Z,988.96
2018-06-14T01:56:14.443Z,988.98
2018-06-14T01:57:21.361Z,989.02
2018-06-14T01:58:28.384Z,988.97
2018-06-14T01:59:35.219Z,988.99
2018-06-14T02:00:42.114Z,989.01
2018-06-14T02:01:48.910Z,989.01
2018-06-14T02:02:56.075Z,989.00
2018-06-14T02:04:03.057Z,989.00
2018-06-14T02:05:10.115Z,988.98
2018-06-14T02:06:16.991Z,988.94
2018-06-14T02:07:23.918Z,988.93
2018-06-14T02:08:30.720Z,988.97
2018-06-14T02:09:37.647Z,988.96
2018-06-14T02:10:44.558Z,988.93
2018-06-14T02:11:51.498Z,988.94
2018-06-14T02:12:58.508Z,988.95
2018-06-14T02:14:05.703Z,988.96
2018-06-14T02:15:12.121Z,989.02
2018-06-14T02:16:19.126Z,989.01
2018-06-14T02:17:26.034Z,988.97
2018-06-14T02:18:32.963Z,989.02
2018-06-14T02:19:39.692Z,989.05
2018-06-14T02:20:46.472Z,988.96
2018-06-14T02:21:53.626Z,989.02
2018-06-14T02:23:00.567Z,988.99
2018-06-14T02:24:07.731Z,988.93
2018-06-14T02:25:14.679Z,989.01
2018-06-14T02:26:21.695Z,988.95
2018-06-14T02:27:28.581Z,989.02
2018-06-14T02:28:35.678Z,989.02
2018-06-14T02:29:42.774Z,989.04
2018-06-14T02:30:49.737Z,989.00
2018-06-14T02:31:56.590Z,989.00
2018-06-14T02:33:03.607Z,989.01
2018-06-14T02:34:10.598Z,989.01
2018-06-14T02:35:17.641Z,988.98
2018-06-14T02:36:24.691Z,989.03
2018-06-14T02:37:31.684Z,988.95
2018-06-14T02:38:38.643Z,988.98
2018-06-14T02:39:45.668Z,988.87
2018-06-14T02:40:52.571Z,988.91
2018-06-14T02:41:59.266Z,988.91
2018-06-14T02:43:06.153Z,988.95
2018-06-14T02:44:13.040Z,988.95
2018-06-14T02:45:19.999Z,989.01
2018-06-14T02:46:27.072Z,989.00
2018-06-14T02:47:34.111Z,988.98
2018-06-14T02:48:41.066Z,989.03
2018-06-14T02:49:48.083Z,989.02
2018-06-14T02:50:55.011Z,989.04
2018-06-14T02:52:01.887Z,988.98
2018-06-14T02:53:08.978Z,989.08
2018-06-14T02:54:15.878Z,989.06
2018-06-14T02:55:22.835Z,989.07
2018-06-14T02:56:29.837Z,989.00
2018-06-14T02:57:36.829Z,989.05
2018-06-14T02:58:43.798Z,989.10
2018-06-14T02:59:50.729Z,989.05
2018-06-14T03:00:57.697Z,989.01
2018-06-14T03:02:04.479Z,989.03
2018-06-14T03:03:11.370Z,988.97
2018-06-14T03:04:18.342Z,988.94
2018-06-14T03:05:25.125Z,989.04
2018-06-14T03:06:32.046Z,989.04
2018-06-14T03:07:39.140Z,989.01
2018-06-14T03:08:46.082Z,988.98
2018-06-14T03:09:53.197Z,989.08
2018-06-14T03:11:00.157Z,989.05
2018-06-14T03:12:07.027Z,989.10
2018-06-14T03:13:13.973Z,989.04
2018-06-14T03:14:20.968Z,989.01
2018-06-14T03:15:27.976Z,989.13
2018-06-14T03:16:34.825Z,989.07
2018-06-14T03:17:41.946Z,989.05
2018-06-14T03:18:48.491Z,989.05
2018-06-14T03:19:55.543Z,989.04
2018-06-14T03:21:02.384Z,989.07
2018-06-14T03:22:09.698Z,988.97
2018-06-14T03:23:16.799Z,989.02
2018-06-14T03:24:23.727Z,989.02
2018-06-14T03:25:30.706Z,988.97
2018-06-14T03:26:37.683Z,988.99
2018-06-14T03:27:44.623Z,988.96
2018-06-14T03:28:51.626Z,988.99
2018-06-14T03:29:58.569Z,988.97
2018-06-14T03:31:05.666Z,988.91
2018-06-14T03:32:12.762Z,988.94
2018-06-14T03:33:19.840Z,988.89
2018-06-14T03:34:26.868Z,988.86
2018-06-14T03:35:33.889Z,988.94
2018-06-14T03:36:40.872Z,988.92
2018-06-14T03:37:47.907Z,988.93
2018-06-14T03:38:54.954Z,988.92
2018-06-14T03:40:02.059Z,988.93
2018-06-14T03:41:09.019Z,988.96
2018-06-14T03:42:16.003Z,988.97
2018-06-14T03:43:23.058Z,988.93
2018-06-14T03:44:30.136Z,988.97
2018-06-14T03:45:37.134Z,988.95
2018-06-14T03:46:44.130Z,988.93
2018-06-14T03:47:51.030Z,988.98
2018-06-14T03:48:58.092Z,988.94
2018-06-14T03:50:05.058Z,988.98
2018-06-14T03:51:11.920Z,988.98
2018-06-14T03:52:19.135Z,988.99
2018-06-14T03:53:25.579Z,989.03
2018-06-14T03:54:32.499Z,989.00
2018-06-14T03:55:39.811Z,988.98
2018-06-14T03:56:46.306Z,988.94
2018-06-14T03:57:53.276Z,989.00
2018-06-14T03:59:00.121Z,988.98
2018-06-14T04:00:07.135Z,988.93
2018-06-14T04:01:14.015Z,988.89
2018-06-14T04:02:20.930Z,988.86
2018-06-14T04:03:27.971Z,988.88
2018-06-14T04:04:34.821Z,988.93
2018-06-14T04:05:41.767Z,988.89
2018-06-14T04:06:48.812Z,988.91
2018-06-14T04:07:55.888Z,988.82
2018-06-14T04:09:02.989Z,988.87
2018-06-14T04:10:09.800Z,988.85
2018-06-14T04:11:16.779Z,988.84
2018-06-14T04:12:23.647Z,988.84
2018-06-14T04:13:30.657Z,988.85
2018-06-14T04:14:37.804Z,988.82
2018-06-14T04:15:44.769Z,988.80
2018-06-14T04:16:51.847Z,988.82
2018-06-14T04:17:58.936Z,988.86
2018-06-14T04:19:05.485Z,988.83
2018-06-14T04:20:12.523Z,988.88
2018-06-14T04:21:19.362Z,988.85
2018-06-14T04:22:26.404Z,988.85
2018-06-14T04:23:33.367Z,988.88
2018-06-14T04:24:40.662Z,988.88
2018-06-14T04:25:47.175Z,988.81
2018-06-14T04:26:54.143Z,988.85
2018-06-14T04:28:01.200Z,988.88
2018-06-14T04:29:08.115Z,988.83
2018-06-14T04:30:15.107Z,988.83
2018-06-14T04:31:22.102Z,988.89
2018-06-14T04:32:29.141Z,988.84
2018-06-14T04:33:36.194Z,988.93
2018-06-14T04:34:43.110Z,988.82
2018-06-14T04:35:50.238Z,988.82
2018-06-14T04:36:57.213Z,988.80
2018-06-14T04:38:04.194Z,988.86
2018-06-14T04:39:11.219Z,988.72
2018-06-14T04:40:18.350Z,988.78
2018-06-14T04:41:24.822Z,988.86
2018-06-14T04:42:31.810Z,988.81
2018-06-14T04:43:38.663Z,988.84
2018-06-14T04:44:45.731Z,988.86
2018-06-14T04:45:52.822Z,988.82
2018-06-14T04:46:59.816Z,988.86
2018-06-14T04:48:06.813Z,988.83
2018-06-14T04:49:13.871Z,988.82
2018-06-14T04:50:20.856Z,988.84
2018-06-14T04:51:27.843Z,988.83
2018-06-14T04:52:34.756Z,988.78
2018-06-14T04:53:41.870Z,988.82
2018-06-14T04:54:48.824Z,988.82
2018-06-14T04:55:55.613Z,988.87
2018-06-14T04:57:02.687Z,988.86
2018-06-14T04:58:09.508Z,988.93
2018-06-14T04:59:16.610Z,988.90
2018-06-14T05:00:23.616Z,988.88
2018-06-14T05:01:30.519Z,988.91
2018-06-14T05:02:37.492Z,988.86
2018-06-14T05:03:44.530Z,988.81
2018-06-14T05:04:51.682Z,988.83
2018-06-14T05:05:58.618Z,988.82
2018-06-14T05:07:05.565Z,988.85
2018-06-14T05:08:12.627Z,988.83
2018-06-14T05:09:19.186Z,988.87
2018-06-14T05:10:26.354Z,988.89
2018-06-14T05:11:33.294Z,988.89
2018-06-14T05:12:40.367Z,988.80
2018-06-14T05:13:47.345Z,988.83
2018-06-14T05:14:54.123Z,988.87
2018-06-14T05:16:00.939Z,988.81
2018-06-14T05:17:07.811Z,988.84
2018-06-14T05:18:14.796Z,988.86
2018-06-14T05:19:21.844Z,988.86
2018-06-14T05:20:28.900Z,988.78
2018-06-14T05:21:35.847Z,988.78
2018-06-14T05:22:42.810Z,988.83
2018-06-14T05:23:49.819Z,988.78
2018-06-14T05:24:56.881Z,988.79
2018-06-14T05:26:03.879Z,988.88
2018-06-14T05:27:10.913Z,988.88
2018-06-14T05:28:17.891Z,988.84
2018-06-14T05:29:24.874Z,988.88
2018-06-14T05:30:31.984Z,988.88
2018-06-14T05:31:38.950Z,988.87
2018-06-14T05:32:45.887Z,988.85
2018-06-14T05:33:52.916Z,988.85
2018-06-14T05:35:00.102Z,988.82
2018-06-14T05:36:06.694Z,988.91
2018-06-14T05:37:13.761Z,988.93
2018-06-14T05:38:20.778Z,988.85
2018-06-14T05:39:27.624Z,988.90
2018-06-14T05:40:34.675Z,988.88
2018-06-14T05:41:41.587Z,988.83
2018-06-14T05:42:48.619Z,988.79
2018-06-14T05:43:55.545Z,988.85
2018-06-14T05:45:02.507Z,988.84
2018-06-14T05:46:09.490Z,988.72
2018-06-14T05:47:16.348Z,988.76
2018-06-14T05:48:23.385Z,988.73
2018-06-14T05:49:30.475Z,988.73
2018-06-14T05:50:37.389Z,988.71
2018-06-14T05:51:44.385Z,988.74
2018-06-14T05:52:51.392Z,988.77
2018-06-14T05:53:58.214Z,988.70
2018-06-14T05:55:05.286Z,988.73
2018-06-14T05:56:12.222Z,988.73
2018-06-14T05:57:19.063Z,988.73
2018-06-14T05:58:26.001Z,988.69
2018-06-14T05:59:33.093Z,988.74
2018-06-14T06:00:39.772Z,988.76
2018-06-14T06:01:46.604Z,988.74
2018-06-14T06:02:53.373Z,988.74
2018-06-14T06:03:59.863Z,988.82
2018-06-14T06:05:07.141Z,988.74
2018-06-14T06:06:13.811Z,988.82
2018-06-14T06:07:20.786Z,988.83
2018-06-14T06:08:27.821Z,988.77
2018-06-14T06:09:34.886Z,988.77
2018-06-14T06:10:42.178Z,988.88
2018-06-14T06:11:48.851Z,988.76
2018-06-14T06:12:56.029Z,988.77
2018-06-14T06:14:02.573Z,988.72
2018-06-14T06:15:09.569Z,988.77
2018-06-14T06:16:16.718Z,988.75
2018-06-14T06:17:23.855Z,988.76
2018-06-14T06:18:30.825Z,988.70
2018-06-14T06:19:37.571Z,988.70
2018-06-14T06:20:44.191Z,988.70
2018-06-14T06:21:51.036Z,988.63
2018-06-14T06:22:58.056Z,988.65
2018-06-14T06:24:05.025Z,988.69
2018-06-14T06:25:12.139Z,988.66
2018-06-14T06:26:19.142Z,988.61
2018-06-14T06:27:26.035Z,988.64
2018-06-14T06:28:33.059Z,988.67
2018-06-14T06:29:40.737Z,988.68
2018-06-14T06:30:50.456Z,988.72
2018-06-14T06:31:53.771Z,988.66
2018-06-14T06:33:01.035Z,988.64
2018-06-14T06:34:08.077Z,988.76
2018-06-14T06:35:15.269Z,988.70
2018-06-14T06:36:22.285Z,988.63
2018-06-14T06:37:35.109Z,988.64
2018-06-14T06:38:36.492Z,988.70
2018-06-14T06:39:43.287Z,988.71
2018-06-14T06:40:50.984Z,988.72
2018-06-14T06:41:57.123Z,988.64
2018-06-14T06:43:05.186Z,988.77
2018-06-14T06:44:11.165Z,988.70
2018-06-14T06:45:18.178Z,988.71
2018-06-14T06:46:24.910Z,988.66
2018-06-14T06:47:31.939Z,988.70
2018-06-14T06:48:55.267Z,988.69
2018-06-14T06:50:01.807Z,988.67
2018-06-14T06:51:08.650Z,988.75
2018-06-14T06:52:15.873Z,988.77
2018-06-14T06:53:22.895Z,988.69
2018-06-14T06:54:30.696Z,988.71
2018-06-14T06:55:37.191Z,988.75
2018-06-14T06:56:45.752Z,988.69
2018-06-14T06:57:51.258Z,988.71
2018-06-14T06:58:59.508Z,988.73
2018-06-14T07:00:05.095Z,988.72
2018-06-14T07:01:13.077Z,988.71
2018-06-14T07:02:18.576Z,988.77
2018-06-14T07:03:25.306Z,988.68
2018-06-14T07:04:32.506Z,988.63
2018-06-14T07:05:39.629Z,988.74
2018-06-14T07:06:46.443Z,988.72
2018-06-14T07:07:53.450Z,988.76
2018-06-14T07:09:00.478Z,988.77
2018-06-14T07:10:07.573Z,988.72
2018-06-14T07:11:14.788Z,988.70
2018-06-14T07:12:21.900Z,988.75
2018-06-14T07:13:28.590Z,988.66
2018-06-14T07:14:35.250Z,988.73
2018-06-14T07:15:42.530Z,988.72
2018-06-14T07:16:49.334Z,988.71
2018-06-14T07:17:55.973Z,988.70
2018-06-14T07:19:02.922Z,988.70
2018-06-14T07:20:09.962Z,988.61
2018-06-14T07:21:16.637Z,988.65
2018-06-14T07:22:23.610Z,988.64
2018-06-14T07:23:30.689Z,988.68
2018-06-14T07:24:37.840Z,988.70
2018-06-14T07:25:44.340Z,988.72
2018-06-14T07:26:51.351Z,988.68
2018-06-14T07:27:58.341Z,988.61
2018-06-14T07:29:05.608Z,988.68
2018-06-14T07:30:12.527Z,988.68
2018-06-14T07:31:21.354Z,988.64
2018-06-14T07:32:26.126Z,988.62
2018-06-14T07:33:32.855Z,988.60
2018-06-14T07:34:39.563Z,988.50
2018-06-14T07:35:46.565Z,988.55
2018-06-14T07:36:53.538Z,988.50
2018-06-14T07:38:00.759Z,988.52
2018-06-14T07:39:07.360Z,988.53
2018-06-14T07:40:14.673Z,988.55
2018-06-14T07:41:22.699Z,988.49
2018-06-14T07:42:29.760Z,988.61
2018-06-14T07:43:35.003Z,988.58
2018-06-14T07:44:42.106Z,988.60
2018-06-14T07:45:49.162Z,988.64
2018-06-14T07:46:56.110Z,988.63
2018-06-14T07:48:03.361Z,988.53
2018-06-14T07:49:09.840Z,988.58
2018-06-14T07:50:16.423Z,988.56
2018-06-14T07:51:23.714Z,988.46
2018-06-14T07:52:30.623Z,988.57
2018-06-14T07:53:37.627Z,988.51
2018-06-14T07:54:44.688Z,988.55
2018-06-14T07:55:51.679Z,988.54
2018-06-14T07:56:58.603Z,988.59
2018-06-14T07:58:05.570Z,988.53
2018-06-14T07:59:12.718Z,988.60
2018-06-14T08:00:19.547Z,988.55
2018-06-14T08:01:26.495Z,988.52
2018-06-14T08:02:34.691Z,988.56
2018-06-14T08:03:40.452Z,988.63
2018-06-14T08:04:47.472Z,988.57
2018-06-14T08:05:54.307Z,988.56
2018-06-14T08:07:02.347Z,988.60
2018-06-14T08:08:07.967Z,988.54
2018-06-14T08:09:15.173Z,988.55
2018-06-14T08:10:21.828Z,988.55
2018-06-14T08:11:28.933Z,988.53
2018-06-14T08:12:35.985Z,988.55
2018-06-14T08:13:43.279Z,988.56
2018-06-14T08:14:49.943Z,988.47
2018-06-14T08:15:57.259Z,988.51
2018-06-14T08:17:04.065Z,988.43
2018-06-14T08:18:10.888Z,988.54
2018-06-14T08:19:17.830Z,988.53
2018-06-14T08:20:24.837Z,988.51
2018-06-14T08:21:31.828Z,988.51
2018-06-14T08:22:38.558Z,988.51
2018-06-14T08:23:45.600Z,988.54
2018-06-14T08:24:52.742Z,988.53
2018-06-14T08:25:59.119Z,988.53
2018-06-14T08:27:05.878Z,988.50
2018-06-14T08:28:12.793Z,988.55
2018-06-14T08:29:19.786Z,988.49
2018-06-14T08:30:26.722Z,988.50
2018-06-14T08:31:35.871Z,988.48
2018-06-14T08:32:40.528Z,988.46
2018-06-14T08:33:47.429Z,988.47
2018-06-14T08:34:54.282Z,988.47
2018-06-14T08:36:01.512Z,988.40
2018-06-14T08:37:07.893Z,988.39
2018-06-14T08:38:14.687Z,988.39
2018-06-14T08:39:21.494Z,988.38
2018-06-14T08:40:28.478Z,988.39
2018-06-14T08:41:35.354Z,988.36
2018-06-14T08:42:42.388Z,988.36
2018-06-14T08:43:49.334Z,988.37
2018-06-14T08:44:56.119Z,988.43
2018-06-14T08:46:03.061Z,988.47
2018-06-14T08:47:10.023Z,988.41
2018-06-14T08:48:17.100Z,988.37
2018-06-14T08:49:24.112Z,988.32
2018-06-14T08:50:30.926Z,988.37
2018-06-14T08:51:37.722Z,988.35
2018-06-14T08:52:44.601Z,988.38
2018-06-14T08:53:51.638Z,988.30
2018-06-14T08:54:58.342Z,988.31
2018-06-14T08:56:05.282Z,988.34
2018-06-14T08:57:12.064Z,988.29
2018-06-14T08:58:19.028Z,988.26
2018-06-14T08:59:25.987Z,988.29
2018-06-14T09:00:32.794Z,988.23
2018-06-14T09:01:39.633Z,988.30
2018-06-14T09:02:46.541Z,988.31
2018-06-14T09:03:53.618Z,988.23
2018-06-14T09:05:00.117Z,988.33
2018-06-14T09:06:06.941Z,988.30
2018-06-14T09:07:13.841Z,988.33
2018-06-14T09:08:20.665Z,988.33
2018-06-14T09:09:27.420Z,988.29
2018-06-14T09:10:34.137Z,988.24
2018-06-14T09:11:41.022Z,988.22
2018-06-14T09:12:47.842Z,988.21
2018-06-14T09:13:54.846Z,988.26
2018-06-14T09:15:01.677Z,988.21
2018-06-14T09:16:08.660Z,988.21
2018-06-14T09:17:15.543Z,988.20
2018-06-14T09:18:22.667Z,988.22
2018-06-14T09:19:29.552Z,988.22
2018-06-14T09:20:36.595Z,988.20
2018-06-14T09:21:43.390Z,988.26
2018-06-14T09:22:50.122Z,988.33
2018-06-14T09:23:57.125Z,988.25
2018-06-14T09:25:04.127Z,988.22
2018-06-14T09:26:11.237Z,988.28
2018-06-14T09:27:18.079Z,988.33
2018-06-14T09:28:24.930Z,988.29
2018-06-14T09:29:31.771Z,988.31
2018-06-14T09:30:38.501Z,988.29
2018-06-14T09:31:45.349Z,988.25
2018-06-14T09:32:52.257Z,988.22
2018-06-14T09:33:59.460Z,988.24
2018-06-14T09:35:05.717Z,988.17
2018-06-14T09:36:12.977Z,988.14
2018-06-14T09:37:24.796Z,988.16
2018-06-14T09:38:26.828Z,988.15
2018-06-14T09:39:33.613Z,988.17
2018-06-14T09:40:40.446Z,988.24
2018-06-14T09:42:54.386Z,988.21
2018-06-14T09:44:01.388Z,988.16
2018-06-14T09:45:08.362Z,988.23
2018-06-14T09:46:15.166Z,988.21
2018-06-14T09:47:21.922Z,988.30
2018-06-14T09:48:29.079Z,988.18
2018-06-14T09:49:36.054Z,988.27
2018-06-14T09:50:43.145Z,988.30
2018-06-14T09:51:49.629Z,988.31
2018-06-14T09:52:56.575Z,988.31
2018-06-14T09:54:03.502Z,988.29
2018-06-14T09:55:10.458Z,988.30
2018-06-14T09:56:17.541Z,988.28
2018-06-14T09:57:24.337Z,988.24
2018-06-14T09:58:31.215Z,988.26
2018-06-14T09:59:38.132Z,988.24
2018-06-14T10:00:44.918Z,988.27
2018-06-14T10:01:51.856Z,988.23
2018-06-14T10:02:58.739Z,988.25
2018-06-14T10:04:05.830Z,988.31
2018-06-14T10:05:12.367Z,988.42
2018-06-14T10:06:19.167Z,988.39
2018-06-14T10:07:25.992Z,988.32
2018-06-14T10:08:32.975Z,988.38
2018-06-14T10:09:39.848Z,988.33
2018-06-14T10:10:46.956Z,988.28
2018-06-14T10:11:54.018Z,988.35
2018-06-14T10:13:01.013Z,988.27
2018-06-14T10:14:08.043Z,988.31
2018-06-14T10:15:14.734Z,988.32
2018-06-14T10:16:21.693Z,988.36
2018-06-14T10:17:28.359Z,988.33
2018-06-14T10:18:35.443Z,988.41
2018-06-14T10:19:42.407Z,988.33
2018-06-14T10:20:49.366Z,988.34
2018-06-14T10:21:56.355Z,988.36
2018-06-14T10:23:03.436Z,988.31
2018-06-14T10:24:10.361Z,988.33
2018-06-14T10:25:17.320Z,988.27
2018-06-14T10:26:24.779Z,988.30
2018-06-14T10:27:30.991Z,988.22
2018-06-14T10:28:38.053Z,988.34
2018-06-14T10:29:45.024Z,988.27
2018-06-14T10:30:51.861Z,988.26
2018-06-14T10:31:58.749Z,988.21
2018-06-14T10:33:05.603Z,988.19
2018-06-14T10:34:12.974Z,988.23
2018-06-14T10:35:19.679Z,988.12
2018-06-14T10:36:26.433Z,988.22
2018-06-14T10:37:33.303Z,988.24
2018-06-14T10:38:40.210Z,988.17
2018-06-14T10:39:47.049Z,988.11
2018-06-14T10:40:54.490Z,988.09
2018-06-14T10:42:00.952Z,988.19
2018-06-14T10:43:07.976Z,988.18
2018-06-14T10:44:14.902Z,988.22
2018-06-14T10:45:21.638Z,988.18
2018-06-14T10:46:28.510Z,988.19
2018-06-14T10:47:35.485Z,988.24
2018-06-14T10:48:42.453Z,988.17
2018-06-14T10:49:48.956Z,988.16
2018-06-14T10:50:55.690Z,988.20
2018-06-14T10:52:02.652Z,988.15
2018-06-14T10:53:09.699Z,988.21
2018-06-14T10:54:16.534Z,988.19
2018-06-14T10:55:23.515Z,988.18
2018-06-14T10:56:30.386Z,988.21
2018-06-14T10:57:37.127Z,988.16
2018-06-14T10:58:43.963Z,988.18
2018-06-14T10:59:50.775Z,988.17
2018-06-14T11:00:57.822Z,988.16
2018-06-14T11:02:05.043Z,988.19
2018-06-14T11:03:12.199Z,988.23
2018-06-14T11:04:19.295Z,988.17
2018-06-14T11:05:25.968Z,988.20
2018-06-14T11:06:32.921Z,988.20
2018-06-14T11:07:39.685Z,988.19
2018-06-14T11:08:47.822Z,988.23
2018-06-14T11:09:53.189Z,988.25
2018-06-14T11:11:01.999Z,988.24
2018-06-14T11:12:06.953Z,988.20
2018-06-14T11:13:14.058Z,988.21
2018-06-14T11:14:21.091Z,988.19
2018-06-14T11:15:28.082Z,988.14
2018-06-14T11:16:35.044Z,988.16
2018-06-14T11:17:42.035Z,988.19
2018-06-14T11:18:49.001Z,988.10
2018-06-14T11:19:55.792Z,988.08
2018-06-14T11:21:02.564Z,988.08
2018-06-14T11:22:09.392Z,988.01
2018-06-14T11:23:16.531Z,988.04
2018-06-14T11:24:23.086Z,988.03
2018-06-14T11:25:30.142Z,988.01
2018-06-14T11:26:36.944Z,988.06
2018-06-14T11:27:43.689Z,988.03
2018-06-14T11:28:50.587Z,987.99
2018-06-14T11:29:57.675Z,988.01
2018-06-14T11:31:04.722Z,987.99
2018-06-14T11:32:11.591Z,988.00
2018-06-14T11:33:18.438Z,987.96
2018-06-14T11:34:25.270Z,987.90
2018-06-14T11:35:32.012Z,987.97
2018-06-14T11:36:38.930Z,987.92
2018-06-14T11:37:45.802Z,987.88
2018-06-14T11:38:52.838Z,987.82
2018-06-14T11:39:59.653Z,987.85
2018-06-14T11:41:06.650Z,987.83
2018-06-14T11:42:13.522Z,987.92
2018-06-14T11:43:20.355Z,987.82
2018-06-14T11:44:27.453Z,987.93
2018-06-14T11:45:34.101Z,987.87
2018-06-14T11:46:40.810Z,987.84
2018-06-14T11:47:48.066Z,987.85
2018-06-14T11:48:54.682Z,987.80
2018-06-14T11:50:01.640Z,987.84
2018-06-14T11:51:08.738Z,987.81
2018-06-14T11:52:15.817Z,987.84
2018-06-14T11:53:22.645Z,987.82
2018-06-14T11:54:29.902Z,987.81
2018-06-14T11:55:36.318Z,987.75
2018-06-14T11:56:43.156Z,987.73
2018-06-14T11:57:50.187Z,987.72
2018-06-14T11:58:57.094Z,987.64
2018-06-14T12:00:03.822Z,987.67
2018-06-14T12:01:10.793Z,987.65
2018-06-14T12:02:17.727Z,987.61
2018-06-14T12:03:25.654Z,987.62
2018-06-14T12:04:31.137Z,987.63
2018-06-14T12:05:38.226Z,987.65
2018-06-14T12:06:45.264Z,987.62
2018-06-14T12:07:52.066Z,987.63
2018-06-14T12:08:58.883Z,987.62
2018-06-14T12:10:05.792Z,987.57
2018-06-14T12:11:12.554Z,987.66
2018-06-14T12:12:19.434Z,987.67
2018-06-14T12:13:26.422Z,987.58
2018-06-14T12:14:33.213Z,987.62
2018-06-14T12:15:40.206Z,987.61
2018-06-14T12:16:47.130Z,987.56
2018-06-14T12:17:54.018Z,987.61
2018-06-14T12:19:00.807Z,987.67
2018-06-14T12:20:07.825Z,987.64
2018-06-14T12:21:14.641Z,987.68
2018-06-14T12:22:21.431Z,987.55
2018-06-14T12:23:28.379Z,987.64
2018-06-14T12:24:35.351Z,987.62
2018-06-14T12:25:42.365Z,987.68
2018-06-14T12:26:49.322Z,987.63
2018-06-14T12:27:56.414Z,987.62
2018-06-14T12:29:03.390Z,987.57
2018-06-14T12:30:10.229Z,987.64
2018-06-14T12:31:17.241Z,987.65
2018-06-14T12:32:23.948Z,987.62
2018-06-14T12:33:30.806Z,987.61
2018-06-14T12:34:37.646Z,987.62
2018-06-14T12:35:44.398Z,987.59
2018-06-14T12:36:51.462Z,987.59
2018-06-14T12:37:58.394Z,987.62
2018-06-14T12:39:05.299Z,987.62
2018-06-14T12:40:13.569Z,987.59
2018-06-14T12:41:18.992Z,987.61
2018-06-14T12:42:26.097Z,987.48
2018-06-14T12:43:33.038Z,987.50
2018-06-14T12:44:39.922Z,987.46
2018-06-14T12:45:46.763Z,987.47
2018-06-14T12:46:53.548Z,987.46
2018-06-14T12:48:00.384Z,987.48
2018-06-14T12:49:07.274Z,987.50
2018-06-14T12:50:13.954Z,987.52
2018-06-14T12:51:20.992Z,987.51
2018-06-14T12:52:27.623Z,987.45
2018-06-14T12:53:34.655Z,987.45
2018-06-14T12:54:41.342Z,987.48
2018-06-14T12:55:48.208Z,987.37
2018-06-14T12:56:55.170Z,987.32
2018-06-14T12:58:02.074Z,987.33
2018-06-14T12:59:09.010Z,987.33
2018-06-14T13:00:16.329Z,987.31
2018-06-14T13:01:22.870Z,987.37
2018-06-14T13:02:29.737Z,987.35
2018-06-14T13:03:36.867Z,987.31
2018-06-14T13:04:43.541Z,987.28
2018-06-14T13:05:50.447Z,987.23
2018-06-14T13:06:57.280Z,987.25
2018-06-14T13:08:04.142Z,987.26
2018-06-14T13:09:11.298Z,987.32
2018-06-14T13:10:17.822Z,987.26
2018-06-14T13:11:24.853Z,987.25
2018-06-14T13:12:31.835Z,987.19
2018-06-14T13:13:38.730Z,987.19
2018-06-14T13:14:45.637Z,987.16
2018-06-14T13:15:52.549Z,987.12
2018-06-14T13:16:59.466Z,987.25
2018-06-14T13:18:06.402Z,987.18
2018-06-14T13:19:13.186Z,987.24
2018-06-14T13:20:20.015Z,987.19
2018-06-14T13:21:27.009Z,987.17
2018-06-14T13:22:33.797Z,987.23
2018-06-14T13:23:40.581Z,987.24
2018-06-14T13:24:48.585Z,987.14
2018-06-14T13:25:54.332Z,987.13
2018-06-14T13:27:01.135Z,987.22
2018-06-14T13:28:08.015Z,987.18
2018-06-14T13:29:15.024Z,987.22
2018-06-14T13:30:21.718Z,987.15
2018-06-14T13:31:28.462Z,987.20
2018-06-14T13:32:35.377Z,987.09
2018-06-14T13:33:42.167Z,987.12
2018-06-14T13:34:48.909Z,987.05
2018-06-14T13:35:55.811Z,987.10
2018-06-14T13:37:02.766Z,987.09
2018-06-14T13:38:09.543Z,987.12
2018-06-14T13:39:16.327Z,987.06
2018-06-14T13:40:23.101Z,987.10
2018-06-14T13:41:30.167Z,987.04
2018-06-14T13:42:37.106Z,987.07
2018-06-14T13:43:44.001Z,987.09
2018-06-14T13:44:51.104Z,987.03
2018-06-14T13:45:57.991Z,987.09
2018-06-14T13:47:04.719Z,987.10
2018-06-14T13:48:12.039Z,987.09
2018-06-14T13:49:18.441Z,987.08
2018-06-14T13:50:25.191Z,987.10
2018-06-14T13:51:32.011Z,987.07
2018-06-14T13:52:39.050Z,987.05
2018-06-14T13:53:45.822Z,987.05
2018-06-14T13:54:52.680Z,987.03
2018-06-14T13:55:59.534Z,987.05